createdAt,value
2022-08-16T00:00:38.610Z,68.74
2022-08-16T00:03:13.251Z,68.70
2022-08-16T00:05:47.993Z,68.49
2022-08-16T00:08:35.804Z,68.57
2022-08-16T00:11:06.200Z,68.78
2022-08-16T00:13:41.904Z,68.81
2022-08-16T00:17:00.988Z,68.65
2022-08-16T00:18:59.598Z,68.82
2022-08-16T00:21:29.081Z,68.87
2022-08-16T00:23:59.087Z,68.80
2022-08-16T00:26:36.333Z,68.77
2022-08-16T00:29:15.348Z,69.01
2022-08-16T00:31:59.002Z,69.23
2022-08-16T00:34:52.499Z,69.25
2022-08-16T00:37:18.654Z,69.71
2022-08-16T00:39:57.378Z,69.52
2022-08-16T00:42:30.082Z,69.63
2022-08-16T00:45:08.437Z,69.12
2022-08-16T00:47:49.458Z,69.33
2022-08-16T00:50:20.301Z,69.13
2022-08-16T00:52:51.187Z,69.46
2022-08-16T00:55:23.214Z,69.59
2022-08-16T00:57:55.576Z,69.41
2022-08-16T01:00:30.046Z,69.50
2022-08-16T01:03:00.205Z,69.13
2022-08-16T01:05:29.108Z,69.62
2022-08-16T01:07:57.475Z,69.46
2022-08-16T01:10:33.531Z,69.53
2022-08-16T01:13:07.218Z,69.34
2022-08-16T01:15:43.588Z,69.58
2022-08-16T01:18:39.089Z,69.67
2022-08-16T01:21:15.282Z,69.79
2022-08-16T01:24:01.445Z,69.48
2022-08-16T01:26:34.658Z,69.74
2022-08-16T01:29:09.756Z,69.83
2022-08-16T01:31:42.913Z,69.89
2022-08-16T01:34:23.309Z,70.01
2022-08-16T01:37:00.412Z,70.16
2022-08-16T01:39:35.437Z,70.11
2022-08-16T01:42:07.799Z,70.35
2022-08-16T01:44:43.455Z,70.03
2022-08-16T01:47:12.196Z,70.23
2022-08-16T01:49:45.719Z,70.29
2022-08-16T01:52:30.600Z,70.57
2022-08-16T01:55:19.686Z,70.71
2022-08-16T01:57:53.698Z,70.56
2022-08-16T02:00:29.109Z,70.72
2022-08-16T02:02:58.967Z,70.51
2022-08-16T02:05:30.696Z,70.58
2022-08-16T02:08:01.252Z,70.58
2022-08-16T02:10:33.920Z,70.92
2022-08-16T02:13:04.100Z,71.25
2022-08-16T02:15:35.449Z,71.19
2022-08-16T02:18:12.693Z,71.33
2022-08-16T02:20:45.494Z,71.22
2022-08-16T02:23:17.139Z,71.26
2022-08-16T02:25:50.811Z,71.03
2022-08-16T02:28:23.654Z,71.31
2022-08-16T02:30:52.578Z,71.41
2022-08-16T02:33:24.708Z,71.35
2022-08-16T02:36:14.193Z,71.51
2022-08-16T02:38:42.891Z,71.54
2022-08-16T02:41:12.315Z,71.79
2022-08-16T02:43:41.258Z,71.42
2022-08-16T02:46:10.921Z,71.26
2022-08-16T02:48:49.397Z,71.80
2022-08-16T02:51:19.226Z,71.78
2022-08-16T02:53:51.760Z,71.46
2022-08-16T02:56:23.012Z,71.96
2022-08-16T02:58:53.532Z,72.04
2022-08-16T03:01:36.625Z,71.78
2022-08-16T03:04:40.101Z,71.91
2022-08-16T03:07:07.676Z,71.82
2022-08-16T03:09:48.903Z,71.88
2022-08-16T03:12:30.300Z,71.80
2022-08-16T03:15:05.815Z,71.87
2022-08-16T03:17:33.921Z,72.03
2022-08-16T03:20:05.069Z,71.94
2022-08-16T03:22:37.574Z,72.12
2022-08-16T03:25:13.958Z,72.12
2022-08-16T03:27:51.746Z,71.87
2022-08-16T03:30:22.464Z,71.74
2022-08-16T03:32:58.059Z,72.29
2022-08-16T03:35:33.433Z,72.30
2022-08-16T03:38:34.537Z,72.48
2022-08-16T03:41:03.035Z,71.95
2022-08-16T03:43:51.457Z,72.09
2022-08-16T03:46:44.537Z,72.28
2022-08-16T03:49:13.329Z,72.19
2022-08-16T03:51:43.972Z,72.32
2022-08-16T03:54:20.275Z,72.53
2022-08-16T03:56:57.267Z,72.36
2022-08-16T03:59:29.769Z,72.61
2022-08-16T04:02:00.957Z,72.38
2022-08-16T04:04:33.504Z,72.45
2022-08-16T04:07:04.315Z,72.65
2022-08-16T04:09:38.048Z,72.55
2022-08-16T04:12:11.085Z,72.38
2022-08-16T04:14:56.620Z,72.10
2022-08-16T04:17:26.918Z,72.52
2022-08-16T04:19:58.416Z,72.61
2022-08-16T04:22:29.387Z,72.39
2022-08-16T04:25:02.528Z,72.35
2022-08-16T04:27:35.652Z,72.28
2022-08-16T04:30:10.844Z,72.14
2022-08-16T04:32:44.258Z,72.13
2022-08-16T04:35:20.343Z,72.20
2022-08-16T04:37:54.051Z,72.37
2022-08-16T04:40:27.269Z,72.23
2022-08-16T04:42:56.977Z,72.24
2022-08-16T04:45:36.185Z,71.82
2022-08-16T04:48:08.594Z,71.80
2022-08-16T04:50:46.570Z,72.00
2022-08-16T04:53:19.190Z,71.52
2022-08-16T04:55:53.225Z,71.46
2022-08-16T04:58:45.043Z,71.08
2022-08-16T05:01:12.497Z,70.51
2022-08-16T05:04:00.688Z,69.63
2022-08-16T05:06:44.697Z,69.20
2022-08-16T05:09:18.825Z,68.40
2022-08-16T05:11:51.349Z,67.32
2022-08-16T05:14:20.186Z,66.22
2022-08-16T05:17:08.676Z,64.89
2022-08-16T05:19:39.486Z,64.26
2022-08-16T05:22:18.212Z,63.04
2022-08-16T05:24:54.873Z,62.57
2022-08-16T05:27:23.234Z,61.63
2022-08-16T05:30:00.142Z,60.81
2022-08-16T05:32:36.288Z,59.42
2022-08-16T05:35:10.874Z,58.52
2022-08-16T05:37:43.587Z,56.86
2022-08-16T05:40:15.709Z,55.91
2022-08-16T05:42:47.590Z,54.85
2022-08-16T05:45:21.360Z,53.54
2022-08-16T05:47:59.789Z,52.26
2022-08-16T05:50:34.758Z,51.28
2022-08-16T05:53:04.172Z,49.73
2022-08-16T05:55:40.800Z,48.42
2022-08-16T05:58:09.517Z,47.54
2022-08-16T06:00:57.843Z,45.59
2022-08-16T06:03:29.630Z,45.30
2022-08-16T06:06:08.500Z,43.43
2022-08-16T06:08:44.982Z,41.79
2022-08-16T06:11:16.296Z,40.97
2022-08-16T06:13:53.136Z,39.74
2022-08-16T06:33:59.257Z,32.99
2022-08-16T06:36:32.475Z,31.48
2022-08-16T06:39:21.968Z,30.74
2022-08-16T06:42:03.182Z,29.92
2022-08-16T06:44:52.125Z,28.84
2022-08-16T06:47:53.747Z,28.79
2022-08-16T06:50:29.907Z,27.75
2022-08-16T06:53:08.578Z,26.57
2022-08-16T06:55:40.137Z,25.81
2022-08-16T06:58:22.075Z,26.17
2022-08-16T07:00:53.801Z,24.88
2022-08-16T07:03:27.451Z,23.85
2022-08-16T07:05:58.880Z,24.79
2022-08-16T07:08:33.273Z,25.29
2022-08-16T07:11:01.704Z,24.56
2022-08-16T07:14:03.946Z,23.17
2022-08-16T07:16:21.931Z,23.65
2022-08-16T07:18:59.124Z,23.15
2022-08-16T07:21:45.713Z,22.45
2022-08-16T07:24:30.011Z,23.23
2022-08-16T07:27:01.399Z,22.95
2022-08-16T07:29:31.663Z,21.70
2022-08-16T07:32:01.591Z,21.21
2022-08-16T07:34:35.336Z,21.12
2022-08-16T07:37:08.169Z,20.74
2022-08-16T07:39:56.283Z,20.41
2022-08-16T07:42:28.685Z,20.12
2022-08-16T07:45:07.595Z,19.60
2022-08-16T07:47:41.944Z,19.74
2022-08-16T07:50:57.342Z,19.37
2022-08-16T07:53:01.979Z,18.44
2022-08-16T07:55:39.070Z,18.10
2022-08-16T07:58:35.061Z,18.28
2022-08-16T08:01:10.658Z,17.19
2022-08-16T08:03:49.344Z,17.30
2022-08-16T08:06:24.850Z,16.55
2022-08-16T08:08:57.224Z,16.14
2022-08-16T08:11:29.029Z,15.98
2022-08-16T08:14:03.841Z,15.64
2022-08-16T08:16:39.583Z,16.64
2022-08-16T08:19:19.619Z,16.98
2022-08-16T08:22:01.068Z,16.44
2022-08-16T08:24:44.028Z,16.06
2022-08-16T08:27:12.534Z,15.00
2022-08-16T08:30:48.897Z,15.00
2022-08-16T08:33:00.020Z,14.49
2022-08-16T08:35:32.202Z,14.48
2022-08-16T08:38:02.341Z,13.39
2022-08-16T08:40:33.720Z,13.58
2022-08-16T08:43:11.784Z,13.42
2022-08-16T08:45:49.323Z,13.13
2022-08-16T08:48:34.167Z,13.11
2022-08-16T08:51:09.658Z,13.29
2022-08-16T08:53:57.809Z,13.17
2022-08-16T08:56:35.127Z,13.53
2022-08-16T08:59:29.132Z,13.89
2022-08-16T09:01:58.702Z,14.33
2022-08-16T09:04:31.435Z,13.97
2022-08-16T09:07:01.694Z,13.52
2022-08-16T09:09:34.206Z,12.14
2022-08-16T09:12:31.260Z,12.03
2022-08-16T09:15:13.431Z,11.58
2022-08-16T09:17:51.891Z,11.69
2022-08-16T09:20:23.637Z,11.51
2022-08-16T09:22:54.714Z,10.91
2022-08-16T09:25:35.400Z,11.51
2022-08-16T09:28:08.804Z,10.71
2022-08-16T09:30:43.855Z,10.42
2022-08-16T09:33:14.488Z,9.83
2022-08-16T09:35:42.826Z,9.48
2022-08-16T09:38:31.452Z,9.95
2022-08-16T09:41:01.116Z,9.82
2022-08-16T09:43:58.067Z,10.10
2022-08-16T09:46:33.535Z,9.71
2022-08-16T09:49:08.488Z,9.26
2022-08-16T09:51:37.492Z,9.66
2022-08-16T09:54:06.067Z,9.09
2022-08-16T09:56:53.248Z,9.36
2022-08-16T09:59:25.425Z,9.41
2022-08-16T10:01:59.504Z,8.73
2022-08-16T10:04:30.370Z,8.50
2022-08-16T10:09:42.315Z,9.08
2022-08-16T10:12:34.352Z,8.51
2022-08-16T10:15:03.555Z,9.08
2022-08-16T10:20:06.842Z,8.87
2022-08-16T10:22:36.950Z,8.71
2022-08-16T10:25:09.844Z,9.23
2022-08-16T10:27:46.200Z,8.63
2022-08-16T10:30:24.873Z,8.91
2022-08-16T10:32:54.162Z,9.50
2022-08-16T10:35:22.770Z,11.07
2022-08-16T10:37:52.175Z,11.34
2022-08-16T10:40:29.033Z,10.18
2022-08-16T10:42:59.782Z,8.44
2022-08-16T10:45:36.606Z,8.41
2022-08-16T10:48:28.017Z,8.81
2022-08-16T10:50:57.854Z,8.50
2022-08-16T10:53:26.320Z,8.15
2022-08-16T10:56:01.801Z,7.90
2022-08-16T10:58:34.253Z,7.95
2022-08-16T11:03:57.281Z,8.32
2022-08-16T11:06:28.748Z,8.67
2022-08-16T11:14:34.387Z,10.05
2022-08-16T11:17:10.885Z,10.87
2022-08-16T11:22:46.905Z,9.77
2022-08-16T11:28:07.628Z,8.83
2022-08-16T11:30:38.817Z,9.01
2022-08-16T11:33:08.854Z,8.27
2022-08-16T11:38:51.298Z,9.13
2022-08-16T11:41:15.451Z,9.24
2022-08-16T11:43:43.692Z,9.69
2022-08-16T11:46:34.213Z,10.65
2022-08-16T11:49:07.611Z,12.31
2022-08-16T11:51:39.580Z,12.96
2022-08-16T11:58:51.709Z,16.36
2022-08-16T12:01:29.939Z,16.86
2022-08-16T12:04:17.793Z,17.22
2022-08-16T12:06:53.764Z,18.71
2022-08-16T12:09:24.088Z,19.94
2022-08-16T12:11:53.336Z,19.95
2022-08-16T12:14:22.996Z,20.49
2022-08-16T12:16:55.632Z,22.36
2022-08-16T12:19:36.805Z,23.05
2022-08-16T12:22:19.258Z,21.84
2022-08-16T12:24:52.052Z,21.14
2022-08-16T12:27:23.244Z,22.48
2022-08-16T12:29:52.367Z,24.86
2022-08-16T12:32:37.560Z,24.93
2022-08-16T12:35:11.983Z,24.93
2022-08-16T12:37:41.696Z,24.03
2022-08-16T12:40:22.446Z,24.91
2022-08-16T12:42:58.764Z,25.39
2022-08-16T12:45:30.672Z,25.05
2022-08-16T12:48:34.534Z,25.43
2022-08-16T12:51:13.359Z,25.36
2022-08-16T12:53:42.196Z,24.92
2022-08-16T12:56:13.830Z,25.42
2022-08-16T12:58:50.480Z,24.40
2022-08-16T13:01:22.372Z,24.49
2022-08-16T13:03:59.291Z,25.63
2022-08-16T13:06:39.862Z,26.58
2022-08-16T13:09:20.146Z,25.87
2022-08-16T13:11:59.841Z,26.26
2022-08-16T13:14:33.211Z,27.24
2022-08-16T13:17:05.197Z,25.47
2022-08-16T13:20:05.450Z,25.09
2022-08-16T13:22:25.872Z,26.76
2022-08-16T13:24:55.739Z,26.56
2022-08-16T13:27:59.206Z,26.74
2022-08-16T13:30:36.311Z,27.41
2022-08-16T13:33:01.430Z,28.68
2022-08-16T13:35:42.906Z,27.18
2022-08-16T13:38:25.173Z,27.41
2022-08-16T13:40:56.158Z,28.14
2022-08-16T13:43:26.439Z,27.23
2022-08-16T13:45:55.384Z,28.36
2022-08-16T13:48:24.497Z,27.24
2022-08-16T13:50:54.572Z,27.07
2022-08-16T13:53:24.776Z,27.50
2022-08-16T13:55:57.854Z,27.19
2022-08-16T13:58:34.978Z,25.72
2022-08-16T14:01:04.331Z,26.17
2022-08-16T14:03:38.613Z,27.32
2022-08-16T14:06:07.919Z,25.58
2022-08-16T14:08:42.319Z,26.59
2022-08-16T14:11:12.160Z,26.38
2022-08-16T14:13:41.447Z,28.21
2022-08-16T14:16:24.632Z,26.38
2022-08-16T14:19:02.454Z,26.74
2022-08-16T14:21:34.731Z,27.15
2022-08-16T14:24:16.756Z,26.60
2022-08-16T14:26:50.904Z,26.76
2022-08-16T14:29:20.992Z,27.10
2022-08-16T14:31:49.647Z,26.15
2022-08-16T14:34:25.725Z,28.17
2022-08-16T14:36:56.920Z,28.46
2022-08-16T14:39:26.086Z,27.69
2022-08-16T14:41:55.838Z,27.26
2022-08-16T14:44:26.065Z,26.55
2022-08-16T14:46:54.897Z,26.12
2022-08-16T14:49:24.018Z,28.65
2022-08-16T14:51:52.056Z,29.31
2022-08-16T14:54:20.267Z,27.91
2022-08-16T14:56:54.672Z,27.06
2022-08-16T15:02:35.206Z,27.73
2022-08-16T15:05:22.250Z,27.75
2022-08-16T15:07:57.052Z,30.82
2022-08-16T15:10:32.601Z,30.05
2022-08-16T15:25:02.140Z,28.52
2022-08-16T15:27:35.774Z,30.06
2022-08-16T15:30:58.279Z,30.34
2022-08-16T15:33:03.624Z,30.60
2022-08-16T15:35:33.414Z,30.94
2022-08-16T15:38:08.991Z,31.79
2022-08-16T15:40:57.705Z,31.26
2022-08-16T15:43:33.865Z,31.69
2022-08-16T15:46:35.439Z,31.84
2022-08-16T15:49:13.975Z,32.95
2022-08-16T15:51:43.554Z,33.65
2022-08-16T15:54:29.801Z,33.47
2022-08-16T15:57:10.893Z,33.97
2022-08-16T15:59:49.523Z,34.33
2022-08-16T16:02:31.704Z,34.00
2022-08-16T16:05:02.130Z,35.53
2022-08-16T16:07:33.436Z,34.24
2022-08-16T16:13:43.488Z,34.95
2022-08-16T16:16:13.208Z,34.77
2022-08-16T16:18:48.797Z,35.27
2022-08-16T16:21:20.314Z,33.26
2022-08-16T16:24:21.068Z,32.01
2022-08-16T16:26:51.614Z,31.63
2022-08-16T16:29:19.544Z,31.24
2022-08-16T16:31:59.144Z,33.45
2022-08-16T16:34:32.440Z,34.02
2022-08-16T16:37:03.528Z,35.30
2022-08-16T16:39:32.572Z,36.10
2022-08-16T16:42:00.657Z,38.36
2022-08-16T16:44:33.850Z,39.74
2022-08-16T16:47:06.750Z,38.95
2022-08-16T16:49:35.979Z,39.44
2022-08-16T16:52:10.128Z,42.01
2022-08-16T16:54:41.130Z,42.35
2022-08-16T16:57:29.594Z,42.61
2022-08-16T16:59:57.791Z,42.83
2022-08-16T17:02:46.373Z,42.06
2022-08-16T17:05:16.574Z,42.49
2022-08-16T17:07:44.744Z,43.58
2022-08-16T17:10:13.238Z,43.85
2022-08-16T17:13:05.283Z,44.41
2022-08-16T17:15:36.344Z,44.60
2022-08-16T17:19:16.604Z,43.29
2022-08-16T17:20:54.110Z,44.72
2022-08-16T17:23:23.204Z,44.37
2022-08-16T17:26:11.562Z,44.69
2022-08-16T17:28:58.201Z,45.43
2022-08-16T17:31:40.888Z,45.53
2022-08-16T17:34:29.544Z,45.38
2022-08-16T17:37:05.465Z,45.45
2022-08-16T17:39:59.713Z,45.00
2022-08-16T17:42:25.897Z,44.61
2022-08-16T17:44:54.512Z,44.43
2022-08-16T17:47:22.842Z,45.40
2022-08-16T17:49:50.924Z,45.50
2022-08-16T17:52:20.001Z,46.33
2022-08-16T17:54:47.900Z,46.53
2022-08-16T17:57:17.095Z,46.82
2022-08-16T17:59:44.904Z,46.44
2022-08-16T18:02:42.129Z,46.25
2022-08-16T18:05:00.630Z,46.71
2022-08-16T18:07:29.793Z,46.99
2022-08-16T18:09:57.595Z,47.47
2022-08-16T18:12:54.247Z,47.83
2022-08-16T18:15:18.142Z,48.56
2022-08-16T18:17:46.220Z,48.59
2022-08-16T18:20:35.152Z,49.33
2022-08-16T18:23:05.242Z,49.40
2022-08-16T18:25:33.013Z,50.43
2022-08-16T18:28:00.792Z,50.41
2022-08-16T18:30:28.623Z,50.51
2022-08-16T18:32:57.056Z,51.20
2022-08-16T18:35:24.839Z,50.36
2022-08-16T18:37:52.767Z,50.35
2022-08-16T18:40:22.056Z,50.74
2022-08-16T18:43:03.501Z,50.63
2022-08-16T18:45:36.951Z,50.52
2022-08-16T18:48:07.051Z,51.15
2022-08-16T18:51:03.941Z,51.62
2022-08-16T18:53:25.833Z,51.41
2022-08-16T18:55:57.313Z,51.51
2022-08-16T18:58:26.372Z,51.35
2022-08-16T19:00:57.588Z,51.52
2022-08-16T19:03:27.974Z,52.21
2022-08-16T19:05:58.417Z,52.57
2022-08-16T19:08:26.502Z,52.36
2022-08-16T19:10:56.860Z,52.13
2022-08-16T19:13:28.238Z,52.38
2022-08-16T19:18:25.931Z,53.10
2022-08-16T19:20:55.636Z,53.04
2022-08-16T19:23:26.913Z,53.13
2022-08-16T19:25:59.989Z,53.28
2022-08-16T19:28:51.246Z,53.57
2022-08-16T19:31:21.445Z,54.05
2022-08-16T19:33:54.875Z,53.98
2022-08-16T19:36:31.055Z,54.36
2022-08-16T19:39:05.359Z,54.56
2022-08-16T19:41:36.965Z,54.35
2022-08-16T19:44:06.178Z,54.69
2022-08-16T19:46:34.311Z,54.81
2022-08-16T19:49:02.648Z,55.02
2022-08-16T19:51:31.412Z,55.42
2022-08-16T19:53:59.419Z,54.84
2022-08-16T19:56:27.305Z,55.47
2022-08-16T19:59:17.966Z,55.35
2022-08-16T20:01:46.241Z,55.74
2022-08-16T20:04:14.646Z,55.55
2022-08-16T20:06:43.485Z,55.70
2022-08-16T20:09:14.841Z,55.87
2022-08-16T20:11:44.606Z,56.03
2022-08-16T20:14:24.403Z,56.05
2022-08-16T20:16:56.189Z,55.62
2022-08-16T20:19:24.407Z,56.12
2022-08-16T20:21:52.513Z,56.38
2022-08-16T20:24:34.023Z,56.31
2022-08-16T20:27:06.110Z,56.25
2022-08-16T20:29:36.669Z,56.24
2022-08-16T20:32:05.693Z,56.80
2022-08-16T20:34:33.731Z,56.95
2022-08-16T20:37:01.519Z,56.90
2022-08-16T20:39:29.436Z,56.89
2022-08-16T20:41:57.379Z,57.52
2022-08-16T20:44:25.490Z,57.14
2022-08-16T20:46:54.683Z,57.60
2022-08-16T20:49:22.573Z,57.37
2022-08-16T20:51:55.894Z,57.97
2022-08-16T20:54:27.277Z,57.65
2022-08-16T20:56:55.127Z,57.88
2022-08-16T20:59:22.996Z,58.15
2022-08-16T21:01:51.045Z,58.49
2022-08-16T21:04:21.691Z,58.20
2022-08-16T21:06:54.314Z,58.67
2022-08-16T21:09:24.150Z,58.74
2022-08-16T21:11:53.871Z,58.76
2022-08-16T21:14:21.706Z,58.95
2022-08-16T21:16:49.558Z,59.12
2022-08-16T21:19:17.528Z,59.25
2022-08-16T21:21:47.456Z,59.34
2022-08-16T21:24:16.028Z,59.56
2022-08-16T21:26:53.056Z,59.05
2022-08-16T21:29:31.607Z,59.57
2022-08-16T21:32:13.752Z,59.78
2022-08-16T21:34:42.189Z,59.58
2022-08-16T21:37:12.101Z,60.18
2022-08-16T21:39:43.980Z,60.07
2022-08-16T21:42:14.539Z,60.07
2022-08-16T21:44:43.048Z,60.51
2022-08-16T21:47:10.938Z,60.38
2022-08-16T21:49:39.243Z,60.43
2022-08-16T21:52:08.819Z,60.53
2022-08-16T21:54:38.318Z,60.73
2022-08-16T21:57:10.566Z,60.62
2022-08-16T21:59:38.941Z,60.97
2022-08-16T22:02:07.086Z,60.86
2022-08-16T22:04:37.921Z,61.15
2022-08-16T22:07:07.285Z,61.05
2022-08-16T22:09:35.235Z,61.06
2022-08-16T22:12:05.323Z,61.22
2022-08-16T22:14:33.214Z,61.24
2022-08-16T22:17:01.146Z,61.51
2022-08-16T22:19:29.894Z,61.04
2022-08-16T22:21:57.849Z,61.33
2022-08-16T22:24:25.593Z,61.47
2022-08-16T22:26:53.422Z,62.00
2022-08-16T22:29:22.571Z,61.83
2022-08-16T22:31:50.429Z,61.93
2022-08-16T22:34:18.279Z,62.02
2022-08-16T22:36:46.274Z,62.19
2022-08-16T22:39:15.158Z,62.08
2022-08-16T22:41:45.607Z,61.97
2022-08-16T22:44:13.984Z,62.31
2022-08-16T22:46:43.383Z,62.34
2022-08-16T22:49:12.488Z,62.56
2022-08-16T22:51:41.230Z,62.27
2022-08-16T22:54:45.121Z,62.91
2022-08-16T22:56:57.715Z,62.81
2022-08-16T22:59:25.977Z,62.96
2022-08-16T23:01:55.479Z,62.68
2022-08-16T23:04:23.841Z,62.98
2022-08-16T23:06:52.085Z,62.96
2022-08-16T23:09:20.047Z,62.89
2022-08-16T23:11:47.808Z,63.18
2022-08-16T23:14:16.230Z,63.70
2022-08-16T23:16:47.105Z,63.22
2022-08-16T23:19:17.596Z,63.22
2022-08-16T23:21:48.297Z,63.48
2022-08-16T23:24:19.107Z,63.60
2022-08-16T23:26:49.102Z,63.74
2022-08-16T23:29:24.667Z,63.50
2022-08-16T23:31:56.272Z,63.54
2022-08-16T23:34:26.676Z,63.56
2022-08-16T23:36:54.761Z,63.54
2022-08-16T23:39:23.008Z,63.64
2022-08-16T23:41:51.840Z,63.59
2022-08-16T23:44:42.393Z,63.55
2022-08-16T23:47:07.538Z,63.44
2022-08-16T23:49:56.346Z,63.74
2022-08-16T23:52:40.576Z,63.56
2022-08-16T23:55:12.832Z,63.88
2022-08-16T23:57:40.579Z,63.71
